Time;durP1;ratioP1;P1;durP2;ratioP2;P2;SDS_P1;SDS_P2;PMS_P1;PMS_P2;Temp;Humidity;BMP_temperature;BMP_pressure;BME280_temperature;BME280_humidity;BME280_pressure;Samples;Min_cycle;Max_cycle;Signal;HPM_P1;HPM_P2
2022/04/16 00:00:42;;;;;;;;;;;;;;;10.34;58.31;102462.78;5049508;28;19921;-74
2022/04/16 00:03:10;;;;;;;;;;;;;;;10.34;58.23;102452.38;5053778;28;20428;-74
2022/04/16 00:05:35;;;;;;;;;;;;;;;10.22;58.29;102452.31;5047966;28;19928;-78
2022/04/16 00:08:06;;;;;;;;;;;;;;;10.23;58.01;102460.97;5030654;28;19924;-80
2022/04/16 00:10:36;;;;;;;;;;;;;;;10.25;57.75;102451.47;5051673;28;19924;-80
2022/04/16 00:13:01;;;;;;;;;;;;;;;10.20;58.23;102453.16;5037217;28;19918;-77
2022/04/16 00:15:27;;;;;;;;;;;;;;;9.90;58.72;102446.84;5034439;28;19969;-77
2022/04/16 00:17:52;;;;;;;;;;;;;;;9.95;58.11;102446.03;5039950;28;19925;-79
2022/04/16 00:20:18;;;;;;;;;;;;;;;9.97;58.08;102450.38;5032526;28;19971;-74
2022/04/16 00:22:43;;;;;;;;;;;;;;;9.85;58.96;102458.03;5033219;28;19974;-80
2022/04/16 00:25:08;;;;;;;;;;;;;;;9.92;58.53;102457.28;5050101;28;19923;-77
2022/04/16 00:27:34;;;;;;;;;;;;;;;9.83;58.57;102463.22;5057851;28;20417;-80
2022/04/16 00:30:01;;;;;;;;;;;;;;;9.77;58.90;102463.16;5066895;28;19925;-77
2022/04/16 00:32:27;;;;;;;;;;;;;;;9.78;58.65;102467.47;5067634;28;19959;-77
2022/04/16 00:34:53;;;;;;;;;;;;;;;9.71;58.90;102460.50;5050178;28;19934;-77
2022/04/16 00:37:18;;;;;;;;;;;;;;;9.71;59.07;102463.09;5041266;28;19925;-77
2022/04/16 00:39:43;;;;;;;;;;;;;;;9.86;58.87;102459.78;5044011;28;19932;-77
2022/04/16 00:42:08;;;;;;;;;;;;;;;9.95;58.69;102459.00;5035573;28;20435;-77
2022/04/16 00:44:34;;;;;;;;;;;;;;;9.93;58.49;102452.94;5021799;28;19976;-77
2022/04/16 00:46:59;;;;;;;;;;;;;;;9.74;59.04;102457.94;5050248;28;20364;-77
2022/04/16 00:49:24;;;;;;;;;;;;;;;9.71;59.31;102455.31;5067907;28;19921;-77
2022/04/16 00:51:50;;;;;;;;;;;;;;;9.74;58.63;102457.06;5033099;28;19959;-80
2022/04/16 00:54:16;;;;;;;;;;;;;;;9.72;58.52;102456.19;5054239;28;20003;-77
2022/04/16 00:56:42;;;;;;;;;;;;;;;9.73;58.57;102457.91;5053746;28;20020;-77
2022/04/16 00:59:07;;;;;;;;;;;;;;;9.79;58.43;102460.56;5048951;28;19971;-77
2022/04/16 01:01:33;;;;;;;;;;;;;;;9.85;58.09;102455.44;5044847;28;19967;-77
2022/04/16 01:03:59;;;;;;;;;;;;;;;9.87;58.13;102453.72;5053715;28;20309;-79
2022/04/16 01:06:34;;;;;;;;;;;;;;;9.92;58.15;102451.19;5053795;28;19928;-73
2022/04/16 01:09:00;;;;;;;;;;;;;;;9.87;58.07;102453.72;5060843;28;20352;-76
2022/04/16 01:11:25;;;;;;;;;;;;;;;9.67;58.45;102453.53;5062013;28;19928;-76
2022/04/16 01:13:51;;;;;;;;;;;;;;;9.55;58.63;102452.53;5034614;28;19935;-74
2022/04/16 01:16:16;;;;;;;;;;;;;;;9.73;58.16;102457.91;5038253;28;19916;-76
2022/04/16 01:18:48;;;;;;;;;;;;;;;9.71;57.90;102470.88;5033146;28;19924;-77
2022/04/16 01:21:13;;;;;;;;;;;;;;;9.58;58.21;102466.41;5046377;28;19924;-77
2022/04/16 01:23:39;;;;;;;;;;;;;;;9.74;58.29;102464.84;5046927;28;19928;-77
2022/04/16 01:26:04;;;;;;;;;;;;;;;9.68;58.30;102465.66;5047711;28;19937;-74
2022/04/16 01:28:30;;;;;;;;;;;;;;;9.58;58.57;102461.22;5016879;28;19925;-79
2022/04/16 01:30:55;;;;;;;;;;;;;;;9.71;57.85;102467.41;5038611;28;19920;-80
2022/04/16 01:33:22;;;;;;;;;;;;;;;9.74;57.90;102472.63;5048693;28;19929;-79
2022/04/16 01:35:53;;;;;;;;;;;;;;;9.41;58.46;102470.56;5034227;28;19931;-76
2022/04/16 01:38:18;;;;;;;;;;;;;;;9.59;57.66;102470.75;5058928;28;20543;-76
2022/04/16 01:40:44;;;;;;;;;;;;;;;9.45;58.13;102469.75;5052797;28;19964;-77
2022/04/16 01:43:09;;;;;;;;;;;;;;;9.56;57.89;102473.31;5036061;28;19966;-77
2022/04/16 01:45:34;;;;;;;;;;;;;;;9.52;58.25;102471.53;5052288;28;19936;-73
2022/04/16 01:48:00;;;;;;;;;;;;;;;9.59;57.74;102464.69;5038366;28;19935;-74
2022/04/16 01:50:26;;;;;;;;;;;;;;;9.57;58.19;102463.81;5039500;28;19950;-73
2022/04/16 01:52:53;;;;;;;;;;;;;;;9.49;58.08;102465.44;5027061;28;19925;-76
2022/04/16 01:55:18;;;;;;;;;;;;;;;9.61;57.85;102469.03;5048197;28;20435;-76
2022/04/16 01:57:44;;;;;;;;;;;;;;;9.55;58.56;102471.56;5033871;28;19924;-80
2022/04/16 02:00:11;;;;;;;;;;;;;;;9.58;58.30;102481.09;5065604;28;20620;-77
2022/04/16 02:02:36;;;;;;;;;;;;;;;9.43;58.35;102473.16;5054633;28;19924;-77
2022/04/16 02:05:03;;;;;;;;;;;;;;;9.47;58.52;102474.94;5060842;28;19943;-79
2022/04/16 02:07:28;;;;;;;;;;;;;;;9.23;58.66;102478.13;5052777;28;19924;-75
2022/04/16 02:09:53;;;;;;;;;;;;;;;9.43;58.17;102474.03;5041975;28;20392;-77
2022/04/16 02:12:19;;;;;;;;;;;;;;;9.57;57.90;102474.19;5052597;28;19943;-76
2022/04/16 02:14:44;;;;;;;;;;;;;;;9.43;57.89;102479.22;5015481;28;19927;-77
2022/04/16 02:17:09;;;;;;;;;;;;;;;9.52;57.60;102478.44;5032899;28;19936;-77
2022/04/16 02:19:36;;;;;;;;;;;;;;;9.47;57.80;102482.72;5019728;28;19925;-79
2022/04/16 02:22:02;;;;;;;;;;;;;;;9.41;58.17;102478.34;5051758;28;19959;-80
2022/04/16 02:24:27;;;;;;;;;;;;;;;9.42;58.12;102487.00;5060464;28;19975;-79
2022/04/16 02:26:55;;;;;;;;;;;;;;;9.23;58.45;102481.59;5052032;28;20360;-74
2022/04/16 02:29:21;;;;;;;;;;;;;;;9.33;58.23;102493.81;5030367;28;19925;-79
2022/04/16 02:31:47;;;;;;;;;;;;;;;9.39;58.19;102492.16;5052878;28;19947;-79
2022/04/16 02:34:13;;;;;;;;;;;;;;;9.31;58.06;102505.03;5053886;28;19956;-80
2022/04/16 02:36:40;;;;;;;;;;;;;;;9.02;58.31;102506.38;5063578;28;20460;-77
2022/04/16 02:39:06;;;;;;;;;;;;;;;9.29;58.33;102505.03;5019684;28;19978;-77
2022/04/16 02:41:31;;;;;;;;;;;;;;;9.42;57.93;102515.53;5040495;28;19990;-77
2022/04/16 02:43:58;;;;;;;;;;;;;;;9.26;57.75;102506.69;5031319;28;20014;-77
2022/04/16 02:49:12;;;;;;;;;;;;;;;9.08;58.68;102515.13;5057008;28;19973;-77
2022/04/16 02:51:38;;;;;;;;;;;;;;;8.93;58.66;102524.41;5031007;28;20459;-79
2022/04/16 02:54:05;;;;;;;;;;;;;;;9.01;58.95;102522.81;5040268;28;19929;-79
2022/04/16 02:56:30;;;;;;;;;;;;;;;9.01;59.32;102518.47;5059190;28;20015;-80
2022/04/16 02:58:55;;;;;;;;;;;;;;;8.78;59.00;102520.75;5046848;28;20012;-73
2022/04/16 03:01:21;;;;;;;;;;;;;;;8.79;58.68;102519.91;5030065;28;20023;-80
2022/04/16 03:03:46;;;;;;;;;;;;;;;8.72;58.97;102520.66;5013910;28;19925;-79
2022/04/16 03:06:11;;;;;;;;;;;;;;;8.80;58.62;102520.75;5056004;28;19925;-77
2022/04/16 03:08:37;;;;;;;;;;;;;;;9.04;57.69;102521.09;5036278;28;20027;-77
2022/04/16 03:11:04;;;;;;;;;;;;;;;8.77;58.68;102521.59;5053333;28;20015;-77
2022/04/16 03:13:29;;;;;;;;;;;;;;;8.94;58.12;102526.16;5041609;28;19921;-77
2022/04/16 03:18:39;;;;;;;;;;;;;;;8.82;57.52;102524.28;5049221;28;19963;-74
2022/04/16 03:21:05;;;;;;;;;;;;;;;8.62;58.83;102523.13;5051030;28;19952;-73
2022/04/16 03:23:30;;;;;;;;;;;;;;;8.85;57.71;102524.31;5031273;28;19920;-74
2022/04/16 03:25:58;;;;;;;;;;;;;;;8.95;57.45;102522.72;5064018;28;19931;-73
2022/04/16 03:28:24;;;;;;;;;;;;;;;8.87;56.79;102522.59;5053301;28;20015;-76
2022/04/16 03:30:49;;;;;;;;;;;;;;;8.93;57.23;102520.09;5065644;28;20020;-76
2022/04/16 03:33:14;;;;;;;;;;;;;;;8.69;58.03;102527.53;5041381;28;19970;-76
2022/04/16 03:35:40;;;;;;;;;;;;;;;8.71;57.88;102526.69;5051138;28;19929;-73
2022/04/16 03:38:05;;;;;;;;;;;;;;;8.72;58.65;102536.22;5031332;28;19991;-73
2022/04/16 03:40:30;;;;;;;;;;;;;;;8.72;57.38;102532.75;5033373;28;19975;-74
2022/04/16 03:42:58;;;;;;;;;;;;;;;8.86;57.54;102528.63;5058632;28;19916;-73
2022/04/16 03:45:28;;;;;;;;;;;;;;;9.02;57.12;102525.41;5049610;28;19952;-76
2022/04/16 03:47:54;;;;;;;;;;;;;;;8.92;56.96;102520.09;5050783;28;19982;-77
2022/04/16 03:50:20;;;;;;;;;;;;;;;8.96;57.25;102522.72;5031367;28;19929;-77
2022/04/16 03:52:46;;;;;;;;;;;;;;;8.96;56.95;102529.63;5033691;28;19924;-80
2022/04/16 04:00:46;;;;;;;;;;;;;;;8.82;57.60;102536.34;5046991;28;20339;-73
2022/04/16 04:03:11;;;;;;;;;;;;;;;8.58;58.35;102535.16;5053212;28;19939;-76
2022/04/16 04:05:37;;;;;;;;;;;;;;;8.83;57.35;102533.75;5056386;28;19929;-76
2022/04/16 04:08:06;;;;;;;;;;;;;;;8.68;57.81;102546.53;5014653;28;19929;-79
2022/04/16 04:10:32;;;;;;;;;;;;;;;8.74;57.95;102538.84;5045150;28;19925;-79
2022/04/16 04:12:57;;;;;;;;;;;;;;;8.61;58.24;102545.56;5033104;28;19912;-76
2022/04/16 04:15:23;;;;;;;;;;;;;;;8.54;58.34;102550.59;5040802;28;19925;-79
2022/04/16 04:17:49;;;;;;;;;;;;;;;8.96;57.35;102548.66;5030936;28;20300;-79
2022/04/16 04:20:15;;;;;;;;;;;;;;;8.99;57.01;102545.22;5037535;28;19932;-79
2022/04/16 04:22:40;;;;;;;;;;;;;;;8.79;57.99;102544.97;5052061;28;20609;-79
2022/04/16 04:25:06;;;;;;;;;;;;;;;8.83;57.01;102548.47;5057600;28;19924;-80
2022/04/16 04:27:31;;;;;;;;;;;;;;;8.69;57.48;102545.66;5053359;28;20567;-77
2022/04/16 04:29:56;;;;;;;;;;;;;;;8.69;57.49;102556.91;5016577;28;20025;-77
2022/04/16 04:32:22;;;;;;;;;;;;;;;8.58;57.21;102544.63;5039513;28;19940;-77
2022/04/16 04:34:47;;;;;;;;;;;;;;;8.37;58.29;102550.34;5033079;28;21496;-77
2022/04/16 04:37:12;;;;;;;;;;;;;;;8.70;57.41;102552.59;5039256;28;20264;-73
2022/04/16 04:39:38;;;;;;;;;;;;;;;8.39;58.17;102551.22;5055680;28;19929;-80
2022/04/16 04:42:03;;;;;;;;;;;;;;;8.52;57.99;102555.78;5042110;28;19930;-80
2022/04/16 04:44:29;;;;;;;;;;;;;;;8.64;57.31;102563.75;5039241;28;20415;-80
2022/04/16 04:46:54;;;;;;;;;;;;;;;8.58;57.59;102568.81;5054197;28;20008;-74
2022/04/16 04:49:19;;;;;;;;;;;;;;;8.54;57.60;102567.03;5047038;28;19925;-76
2022/04/16 04:51:45;;;;;;;;;;;;;;;8.68;57.79;102577.63;5037813;28;19921;-76
2022/04/16 04:54:10;;;;;;;;;;;;;;;8.52;58.05;102573.03;5053241;28;19956;-76
2022/04/16 04:56:36;;;;;;;;;;;;;;;8.45;57.78;102573.75;5033146;28;19921;-74
2022/04/16 04:59:01;;;;;;;;;;;;;;;8.51;57.45;102579.03;5047772;28;19928;-73
2022/04/16 05:01:27;;;;;;;;;;;;;;;8.36;58.12;102583.97;5049704;28;19921;-79
2022/04/16 05:03:52;;;;;;;;;;;;;;;8.40;58.59;102586.66;5034957;28;19921;-80
2022/04/16 05:06:17;;;;;;;;;;;;;;;8.34;58.93;102581.38;5034506;28;19933;-77
2022/04/16 05:08:45;;;;;;;;;;;;;;;8.35;58.77;102598.66;5048746;28;20014;-77
2022/04/16 05:11:11;;;;;;;;;;;;;;;8.43;58.50;102599.66;5034079;28;19928;-73
2022/04/16 05:13:36;;;;;;;;;;;;;;;8.58;58.23;102599.91;5031113;28;19924;-76
2022/04/16 05:16:01;;;;;;;;;;;;;;;8.48;58.49;102602.31;5042726;28;19924;-76
2022/04/16 05:18:27;;;;;;;;;;;;;;;8.56;58.80;102608.50;5042502;28;19925;-76
2022/04/16 05:20:52;;;;;;;;;;;;;;;8.46;58.84;102619.53;5056037;28;19921;-76
2022/04/16 05:23:17;;;;;;;;;;;;;;;8.60;58.63;102611.16;5029064;28;19928;-76
2022/04/16 05:25:43;;;;;;;;;;;;;;;8.64;58.95;102617.25;5049550;28;19932;-76
2022/04/16 05:28:09;;;;;;;;;;;;;;;8.78;59.15;102611.44;5029104;28;19971;-76
2022/04/16 05:30:38;;;;;;;;;;;;;;;8.61;59.83;102612.03;5043807;28;20558;-77
2022/04/16 05:33:16;;;;;;;;;;;;;;;8.59;59.73;102616.31;5041625;28;19932;-77
2022/04/16 05:35:41;;;;;;;;;;;;;;;8.72;59.46;102619.13;5038173;28;19926;-80
2022/04/16 05:38:06;;;;;;;;;;;;;;;8.72;59.49;102615.66;5046183;28;20316;-79
2022/04/16 05:40:32;;;;;;;;;;;;;;;8.69;59.90;102619.06;5041311;28;19920;-74
2022/04/16 05:42:57;;;;;;;;;;;;;;;8.84;60.04;102622.75;5047379;28;19928;-78
2022/04/16 05:45:23;;;;;;;;;;;;;;;8.81;60.07;102628.75;5049145;28;19982;-74
2022/04/16 05:47:48;;;;;;;;;;;;;;;8.83;59.67;102628.81;5030229;28;19939;-74
2022/04/16 05:50:16;;;;;;;;;;;;;;;8.85;60.58;102640.06;5027032;28;19931;-74
2022/04/16 05:52:41;;;;;;;;;;;;;;;8.90;60.14;102635.81;5020285;28;20055;-77
2022/04/16 05:55:08;;;;;;;;;;;;;;;8.90;60.68;102638.41;5037517;28;20413;-77
2022/04/16 05:57:33;;;;;;;;;;;;;;;8.94;60.48;102643.66;5047994;28;19929;-77
2022/04/16 06:00:06;;;;;;;;;;;;;;;9.06;60.74;102649.03;5049042;28;19928;-79
2022/04/16 06:02:32;;;;;;;;;;;;;;;9.05;61.13;102654.19;5052295;28;20028;-79
2022/04/16 06:04:57;;;;;;;;;;;;;;;9.10;61.19;102657.72;5031926;28;20003;-79
2022/04/16 06:07:23;;;;;;;;;;;;;;;9.03;60.99;102656.78;5025694;28;19925;-77
2022/04/16 06:09:48;;;;;;;;;;;;;;;9.23;60.69;102659.66;5048554;28;19928;-77
2022/04/16 06:12:35;;;;;;;;;;;;;;;9.12;61.58;102659.50;5029181;28;19921;-77
2022/04/16 06:15:04;;;;;;;;;;;;;;;9.17;61.11;102659.56;5013918;28;19928;-78
2022/04/16 06:17:29;;;;;;;;;;;;;;;9.17;61.63;102662.16;5029990;28;20400;-77
2022/04/16 06:19:55;;;;;;;;;;;;;;;9.04;61.98;102668.03;5011578;28;19921;-79
2022/04/16 06:22:20;;;;;;;;;;;;;;;8.95;61.61;102668.72;5035625;28;19963;-79
2022/04/16 06:24:46;;;;;;;;;;;;;;;9.08;61.96;102664.59;5034244;28;19928;-79
2022/04/16 06:27:12;;;;;;;;;;;;;;;9.12;61.65;102674.19;5054691;28;20328;-78
2022/04/16 06:29:38;;;;;;;;;;;;;;;9.08;61.83;102675.84;5040234;28;19925;-79
2022/04/16 06:32:04;;;;;;;;;;;;;;;9.20;61.09;102669.97;5044416;28;19921;-79
2022/04/16 06:34:29;;;;;;;;;;;;;;;9.22;62.04;102666.56;5044635;28;19931;-79
2022/04/16 06:36:54;;;;;;;;;;;;;;;9.26;61.75;102663.16;5061830;28;19921;-79
2022/04/16 06:39:20;;;;;;;;;;;;;;;9.28;61.11;102655.41;5029998;28;19924;-79
2022/04/16 06:41:45;;;;;;;;;;;;;;;9.34;61.19;102658.06;5031625;28;19929;-79
2022/04/16 06:44:10;;;;;;;;;;;;;;;9.42;61.26;102659.06;5032090;28;19921;-77
2022/04/16 06:46:35;;;;;;;;;;;;;;;9.38;60.56;102662.47;5031539;28;20621;-77
2022/04/16 06:49:01;;;;;;;;;;;;;;;9.39;60.67;102660.75;5055673;28;21286;-76
2022/04/16 06:51:26;;;;;;;;;;;;;;;9.32;61.40;102665.84;5031509;28;19931;-77
2022/04/16 06:53:51;;;;;;;;;;;;;;;9.48;61.30;102661.75;5035694;28;20381;-77
2022/04/16 06:56:17;;;;;;;;;;;;;;;9.63;61.15;102655.91;5053913;28;19931;-79
2022/04/16 06:58:42;;;;;;;;;;;;;;;9.63;61.65;102656.75;5048787;28;19925;-79
2022/04/16 07:01:07;;;;;;;;;;;;;;;9.59;60.72;102664.47;5048833;28;19928;-79
2022/04/16 07:03:33;;;;;;;;;;;;;;;9.58;60.81;102653.22;5048565;28;19977;-79
2022/04/16 07:05:58;;;;;;;;;;;;;;;9.54;61.15;102668.75;5038366;28;19935;-79
2022/04/16 07:08:23;;;;;;;;;;;;;;;9.70;61.09;102666.34;5035614;28;20051;-79
2022/04/16 07:10:48;;;;;;;;;;;;;;;9.58;61.14;102666.19;5031409;28;19928;-79
2022/04/16 07:13:14;;;;;;;;;;;;;;;9.62;61.45;102667.13;5027845;28;20318;-79
2022/04/16 07:15:39;;;;;;;;;;;;;;;9.76;61.32;102673.34;5048150;28;19925;-79
2022/04/16 07:18:05;;;;;;;;;;;;;;;9.65;61.49;102672.34;5049237;28;19935;-77
2022/04/16 07:20:30;;;;;;;;;;;;;;;9.69;61.73;102669.78;5045342;28;19932;-77
2022/04/16 07:22:55;;;;;;;;;;;;;;;9.74;62.21;102669.88;5050898;28;19920;-77
2022/04/16 07:25:21;;;;;;;;;;;;;;;9.60;62.10;102671.41;5044900;28;19928;-77
2022/04/16 07:27:47;;;;;;;;;;;;;;;9.70;60.93;102671.53;5067014;28;19990;-77
2022/04/16 07:30:13;;;;;;;;;;;;;;;9.74;62.12;102667.28;5032698;28;19924;-77
2022/04/16 07:32:38;;;;;;;;;;;;;;;9.86;61.47;102670.03;5051954;28;19929;-77
2022/04/16 07:35:05;;;;;;;;;;;;;;;9.86;61.82;102668.31;5049527;28;19932;-77
2022/04/16 07:37:31;;;;;;;;;;;;;;;9.97;61.16;102673.66;5056340;28;19925;-74
2022/04/16 07:39:56;;;;;;;;;;;;;;;10.04;60.51;102667.69;5039633;28;19923;-74
2022/04/16 07:42:24;;;;;;;;;;;;;;;10.07;60.84;102669.44;5046760;28;20008;-77
2022/04/16 07:44:50;;;;;;;;;;;;;;;10.00;60.96;102670.22;5048672;28;19921;-77
2022/04/16 07:47:15;;;;;;;;;;;;;;;9.93;62.17;102661.47;5052163;28;20344;-74
2022/04/16 07:49:40;;;;;;;;;;;;;;;9.95;61.96;102675.38;5056656;28;20400;-80
2022/04/16 07:52:06;;;;;;;;;;;;;;;10.04;62.05;102675.47;5051923;28;20627;-79
2022/04/16 07:54:31;;;;;;;;;;;;;;;10.06;62.18;102660.78;5049067;28;19921;-77
2022/04/16 07:56:56;;;;;;;;;;;;;;;10.14;62.47;102661.72;5048216;28;19928;-77
2022/04/16 07:59:21;;;;;;;;;;;;;;;10.14;62.87;102660.84;5046956;28;19946;-77
2022/04/16 08:01:47;;;;;;;;;;;;;;;10.13;62.43;102661.72;5041794;28;19921;-77
2022/04/16 08:04:12;;;;;;;;;;;;;;;10.23;61.21;102666.13;5068129;28;19971;-77
2022/04/16 08:06:37;;;;;;;;;;;;;;;10.17;61.82;102660.88;5070996;28;19925;-74
2022/04/16 08:09:03;;;;;;;;;;;;;;;10.34;61.47;102660.19;5056116;28;20381;-74
2022/04/16 08:11:32;;;;;;;;;;;;;;;10.27;61.91;102657.53;5068223;28;19967;-77
2022/04/16 08:13:58;;;;;;;;;;;;;;;10.38;61.55;102661.09;5054680;28;19921;-77
2022/04/16 08:16:23;;;;;;;;;;;;;;;10.49;61.12;102663.81;5064982;28;20296;-79
2022/04/16 08:18:48;;;;;;;;;;;;;;;10.47;60.70;102662.06;5053007;28;19974;-79
2022/04/16 08:21:14;;;;;;;;;;;;;;;10.50;60.34;102656.03;5049923;28;19917;-79
2022/04/16 08:23:44;;;;;;;;;;;;;;;10.56;59.16;102648.28;5049836;28;20332;-77
2022/04/16 08:26:10;;;;;;;;;;;;;;;10.75;59.22;102642.41;5046113;28;19960;-77
2022/04/16 08:28:36;;;;;;;;;;;;;;;10.89;58.76;102645.09;5042409;28;19931;-77
2022/04/16 08:31:01;;;;;;;;;;;;;;;10.83;57.77;102645.94;5031627;28;20392;-77
2022/04/16 08:33:26;;;;;;;;;;;;;;;10.93;57.65;102646.88;5048943;28;20382;-77
2022/04/16 08:35:52;;;;;;;;;;;;;;;11.02;57.53;102652.13;5062578;28;19956;-74
2022/04/16 08:38:17;;;;;;;;;;;;;;;11.15;57.27;102653.94;5054083;28;19935;-79
2022/04/16 08:40:43;;;;;;;;;;;;;;;11.00;58.28;102657.31;5025745;28;19917;-77
2022/04/16 08:43:08;;;;;;;;;;;;;;;11.05;56.98;102667.75;5045228;28;20015;-77
2022/04/16 08:45:34;;;;;;;;;;;;;;;11.11;57.90;102665.22;5058083;28;19974;-79
2022/04/16 08:48:00;;;;;;;;;;;;;;;11.07;57.42;102666.03;5059456;28;19936;-79
2022/04/16 08:50:25;;;;;;;;;;;;;;;11.13;56.60;102673.88;5060174;28;19921;-79
2022/04/16 08:52:50;;;;;;;;;;;;;;;11.08;56.88;102665.19;5055432;28;19971;-79
2022/04/16 08:55:16;;;;;;;;;;;;;;;11.30;56.62;102674.00;5053799;28;19928;-79
2022/04/16 08:57:41;;;;;;;;;;;;;;;11.20;56.64;102669.59;5053819;28;19923;-79
2022/04/16 09:00:07;;;;;;;;;;;;;;;11.24;56.33;102673.94;5052928;28;19964;-78
2022/04/16 09:02:33;;;;;;;;;;;;;;;11.23;55.41;102672.22;5063084;28;19923;-74
2022/04/16 09:05:06;;;;;;;;;;;;;;;11.24;54.07;102672.22;5052349;28;19928;-74
2022/04/16 09:07:31;;;;;;;;;;;;;;;11.27;55.24;102674.84;5056182;28;19920;-76
2022/04/16 09:10:09;;;;;;;;;;;;;;;11.44;54.09;102672.38;5045349;28;19943;-77
2022/04/16 09:12:38;;;;;;;;;;;;;;;11.47;54.54;102670.66;5064857;28;19916;-77
2022/04/16 09:15:11;;;;;;;;;;;;;;;11.57;54.98;102675.06;5052615;28;20285;-77
2022/04/16 09:17:36;;;;;;;;;;;;;;;11.52;54.45;102670.69;5045197;28;20031;-77
2022/04/16 09:20:02;;;;;;;;;;;;;;;11.41;54.55;102673.22;5045216;28;20019;-77
2022/04/16 09:22:35;;;;;;;;;;;;;;;11.33;53.79;102669.72;5047341;28;20425;-77
2022/04/16 09:25:02;;;;;;;;;;;;;;;11.37;54.67;102670.59;5055137;28;20467;-77
2022/04/16 09:27:27;;;;;;;;;;;;;;;11.46;54.24;102679.34;5043132;28;19933;-79
2022/04/16 09:29:54;;;;;;;;;;;;;;;11.55;52.54;102661.19;5043374;28;19931;-79
2022/04/16 09:32:23;;;;;;;;;;;;;;;11.74;52.84;102663.88;5054131;28;20012;-79
2022/04/16 09:34:48;;;;;;;;;;;;;;;11.78;52.02;102663.00;5047760;28;19935;-79
2022/04/16 09:37:14;;;;;;;;;;;;;;;11.80;51.49;102661.28;5046980;28;20011;-79
2022/04/16 09:39:40;;;;;;;;;;;;;;;11.75;50.84;102670.78;5060671;28;20408;-79
2022/04/16 09:42:05;;;;;;;;;;;;;;;11.61;51.19;102664.66;5034099;28;20014;-79
2022/04/16 09:44:30;;;;;;;;;;;;;;;11.61;50.44;102660.31;5048486;28;19931;-78
2022/04/16 09:46:56;;;;;;;;;;;;;;;11.61;50.89;102662.94;5058780;28;19924;-78
2022/04/16 09:49:21;;;;;;;;;;;;;;;11.57;49.80;102662.03;5060646;28;19916;-78
2022/04/16 09:51:47;;;;;;;;;;;;;;;11.69;51.83;102669.03;5051671;28;19925;-77
2022/04/16 09:54:13;;;;;;;;;;;;;;;11.68;51.24;102669.88;5048238;28;19925;-77
2022/04/16 09:56:40;;;;;;;;;;;;;;;11.65;51.30;102667.28;5058039;28;20005;-79
2022/04/16 09:59:06;;;;;;;;;;;;;;;11.63;50.01;102662.94;5056447;28;19921;-77
2022/04/16 10:01:32;;;;;;;;;;;;;;;11.60;49.78;102668.13;5052419;28;20377;-77
2022/04/16 10:04:00;;;;;;;;;;;;;;;11.68;50.50;102669.03;5045507;28;19979;-77
2022/04/16 10:06:26;;;;;;;;;;;;;;;11.88;51.41;102668.25;5054127;28;19924;-79
2022/04/16 10:08:52;;;;;;;;;;;;;;;11.87;50.62;102668.25;5039165;28;20316;-79
2022/04/16 10:11:41;;;;;;;;;;;;;;;11.89;49.99;102672.59;5063964;28;19967;-79
2022/04/16 10:14:09;;;;;;;;;;;;;;;11.93;50.06;102663.06;5052378;28;19929;-80
2022/04/16 10:16:55;;;;;;;;;;;;;;;11.95;48.61;102659.59;5045499;28;19924;-79
2022/04/16 10:19:20;;;;;;;;;;;;;;;11.82;47.21;102659.56;5006736;28;19971;-74
2022/04/16 10:21:46;;;;;;;;;;;;;;;11.87;49.07;102663.91;5035932;28;19925;-74
2022/04/16 10:24:11;;;;;;;;;;;;;;;11.91;49.49;102670.00;5050137;28;19931;-74
2022/04/16 10:26:38;;;;;;;;;;;;;;;11.96;48.61;102673.50;5047192;28;19928;-77
2022/04/16 10:29:03;;;;;;;;;;;;;;;12.03;53.58;102668.31;5051277;28;19928;-78
2022/04/16 10:31:30;;;;;;;;;;;;;;;12.00;47.69;102670.03;5051033;28;19924;-78
2022/04/16 10:33:56;;;;;;;;;;;;;;;11.96;47.82;102666.56;5046240;28;20125;-78
2022/04/16 10:36:25;;;;;;;;;;;;;;;12.00;48.09;102670.03;5045143;28;19928;-78
2022/04/16 10:38:51;;;;;;;;;;;;;;;11.96;48.31;102670.88;5054059;28;19924;-78
2022/04/16 10:41:20;;;;;;;;;;;;;;;11.93;46.40;102656.13;5049096;28;19975;-78
2022/04/16 10:44:01;;;;;;;;;;;;;;;12.08;49.01;102663.09;5047772;28;19921;-74
2022/04/16 10:46:43;;;;;;;;;;;;;;;12.03;48.66;102662.22;5053529;28;19924;-74
2022/04/16 10:49:31;;;;;;;;;;;;;;;12.05;47.51;102658.75;5047615;28;20543;-74
2022/04/16 10:51:56;;;;;;;;;;;;;;;11.99;47.11;102660.47;5048236;28;19920;-80
2022/04/16 10:54:32;;;;;;;;;;;;;;;11.89;44.79;102658.72;5049223;28;20412;-80
2022/04/16 10:56:58;;;;;;;;;;;;;;;11.83;45.68;102661.31;5031752;28;20496;-80
2022/04/16 10:59:37;;;;;;;;;;;;;;;11.83;45.35;102653.50;5048063;28;19921;-78
2022/04/16 11:02:13;;;;;;;;;;;;;;;11.87;45.15;102658.69;5050083;28;19935;-81
2022/04/16 11:04:39;;;;;;;;;;;;;;;12.03;45.96;102663.09;5040304;28;19971;-80
2022/04/16 11:07:04;;;;;;;;;;;;;;;11.95;45.07;102663.91;5049848;28;19976;-80
2022/04/16 11:09:33;;;;;;;;;;;;;;;12.00;44.60;102654.41;5053342;28;20314;-80
2022/04/16 11:11:58;;;;;;;;;;;;;;;12.07;45.73;102657.03;5052964;28;20328;-80
2022/04/16 11:14:25;;;;;;;;;;;;;;;12.11;46.01;102653.56;5051518;28;19928;-81
2022/04/16 11:16:51;;;;;;;;;;;;;;;12.10;47.69;102661.38;5058708;28;19924;-75
2022/04/16 11:19:16;;;;;;;;;;;;;;;12.01;46.03;102661.34;5045665;28;20444;-77
2022/04/16 11:21:44;;;;;;;;;;;;;;;12.10;45.34;102654.44;5057014;28;19921;-80
2022/04/16 11:24:09;;;;;;;;;;;;;;;12.23;47.40;102663.16;5028842;28;19940;-78
2022/04/16 11:34:52;;;;;;;;;;;;;;;12.22;47.11;102650.09;5055489;28;19948;-77
2022/04/16 11:37:18;;;;;;;;;;;;;;;12.37;47.76;102644.94;5052418;28;19920;-77
2022/04/16 11:39:45;;;;;;;;;;;;;;;12.33;47.16;102636.25;5046172;28;20388;-78
2022/04/16 11:42:10;;;;;;;;;;;;;;;12.38;46.30;102636.25;5044866;28;19925;-78
2022/04/16 11:44:44;;;;;;;;;;;;;;;12.45;52.88;102641.44;5043700;28;19990;-78
2022/04/16 11:47:10;;;;;;;;;;;;;;;12.35;49.91;102644.94;5050414;28;19929;-80
2022/04/16 11:49:40;;;;;;;;;;;;;;;12.39;45.71;102631.06;5047333;28;19967;-80
2022/04/16 11:52:05;;;;;;;;;;;;;;;12.46;48.36;102635.38;5043641;28;19928;-80
2022/04/16 11:54:31;;;;;;;;;;;;;;;12.43;49.77;102626.69;5047868;28;20396;-75
2022/04/16 11:56:57;;;;;;;;;;;;;;;12.46;44.82;102622.34;5047959;28;19928;-75
2022/04/16 11:59:25;;;;;;;;;;;;;;;12.43;45.80;102619.75;5053580;28;20374;-75
2022/04/16 12:01:57;;;;;;;;;;;;;;;12.52;51.97;102624.09;5044731;28;19935;-77
2022/04/16 12:04:40;;;;;;;;;;;;;;;12.58;48.39;102622.41;5052243;28;19921;-81
2022/04/16 12:07:16;;;;;;;;;;;;;;;12.58;45.73;102611.97;5042901;28;19929;-79
2022/04/16 12:09:45;;;;;;;;;;;;;;;12.63;50.88;102620.66;5045285;28;20388;-79
2022/04/16 12:12:16;;;;;;;;;;;;;;;12.57;44.59;102610.22;5047627;28;19929;-78
2022/04/16 12:14:49;;;;;;;;;;;;;;;12.52;45.17;102611.06;5041577;28;19971;-80
2022/04/16 12:17:29;;;;;;;;;;;;;;;12.61;43.96;102605.88;5043221;28;20569;-80
2022/04/16 12:20:05;;;;;;;;;;;;;;;12.50;42.33;102600.66;5039526;28;19929;-80
2022/04/16 12:22:30;;;;;;;;;;;;;;;12.50;42.03;102602.38;5051135;28;20378;-80
2022/04/16 12:25:06;;;;;;;;;;;;;;;12.50;42.07;102598.03;5061379;28;19928;-80
2022/04/16 12:27:31;;;;;;;;;;;;;;;12.60;43.63;102605.00;5046430;28;20301;-78
2022/04/16 12:29:57;;;;;;;;;;;;;;;12.62;46.12;102600.69;5040971;28;19920;-79
2022/04/16 12:32:28;;;;;;;;;;;;;;;12.63;43.33;102583.31;5039655;28;20066;-79
2022/04/16 12:34:54;;;;;;;;;;;;;;;12.66;48.21;102596.34;5049437;28;20393;-81
2022/04/16 12:37:20;;;;;;;;;;;;;;;12.71;43.57;102584.16;5049063;28;19967;-75
2022/04/16 12:39:46;;;;;;;;;;;;;;;12.67;43.66;102587.63;5047838;28;20440;-78
2022/04/16 12:42:11;;;;;;;;;;;;;;;12.74;44.91;102591.97;5025183;28;19924;-75
2022/04/16 12:44:36;;;;;;;;;;;;;;;12.72;44.41;102591.09;5046870;28;20400;-75
2022/04/16 12:47:01;;;;;;;;;;;;;;;12.77;43.27;102583.28;5050420;28;20415;-75
2022/04/16 12:49:27;;;;;;;;;;;;;;;12.82;43.10;102581.53;5055047;28;19927;-75
2022/04/16 12:51:52;;;;;;;;;;;;;;;12.75;41.50;102579.81;5059136;28;20108;-75
2022/04/16 12:54:17;;;;;;;;;;;;;;;12.78;42.42;102580.66;5050856;28;19935;-74
2022/04/16 12:56:43;;;;;;;;;;;;;;;12.88;42.48;102578.91;5045009;28;20439;-75
2022/04/16 12:59:09;;;;;;;;;;;;;;;12.77;40.51;102576.31;5056307;28;19924;-75